createdAt,value
2023-05-10T00:01:24.743Z,96089.53
2023-05-10T00:03:56.373Z,96086.34
2023-05-10T00:06:28.920Z,96091.09
2023-05-10T00:09:00.604Z,96094.81
2023-05-10T00:11:32.391Z,96085.75
2023-05-10T00:14:06.981Z,96102.19
2023-05-10T00:16:38.674Z,96096.63
2023-05-10T00:19:13.252Z,96094.59
2023-05-10T00:21:44.870Z,96095.28
2023-05-10T00:24:18.975Z,96090.25
2023-05-10T00:26:52.676Z,96086.16
2023-05-10T00:29:24.306Z,96090.72
2023-05-10T00:31:56.006Z,96092.69
2023-05-10T00:34:28.542Z,96086.63
2023-05-10T00:37:00.148Z,96097.66
2023-05-10T00:39:31.738Z,96083.16
2023-05-10T00:42:03.486Z,96091.91
2023-05-10T00:44:35.167Z,96097.81
2023-05-10T00:47:07.398Z,96095.34
2023-05-10T00:49:39.028Z,96093.44
2023-05-10T00:52:11.121Z,96099.09
2023-05-10T00:54:45.455Z,96097.75
2023-05-10T00:57:17.144Z,96103.69
2023-05-10T00:59:49.389Z,96096.78
2023-05-10T01:02:20.968Z,96102.63
2023-05-10T01:04:53.123Z,96100.69
2023-05-10T01:07:24.750Z,96094.19
2023-05-10T01:09:59.513Z,96112.03
2023-05-10T01:12:31.427Z,96112.66
2023-05-10T01:15:03.938Z,96110.88
2023-05-10T01:17:38.803Z,96116.91
2023-05-10T01:20:11.993Z,96114.56
2023-05-10T01:23:10.643Z,96121.03
2023-05-10T01:25:53.702Z,96130.28
2023-05-10T01:28:45.737Z,96135.25
2023-05-10T01:31:42.011Z,96132.94
2023-05-10T01:34:21.081Z,96134.97
2023-05-10T01:37:10.059Z,96131.66
2023-05-10T01:40:10.873Z,96141.38
2023-05-10T01:42:55.518Z,96141.97
2023-05-10T01:46:00.371Z,96146.47
2023-05-10T01:48:32.919Z,96147.22
2023-05-10T01:51:07.006Z,96155.22
2023-05-10T01:53:40.109Z,96145.03
2023-05-10T01:56:16.167Z,96141.88
2023-05-10T01:58:49.489Z,96151.16
2023-05-10T02:01:23.218Z,96148.88
2023-05-10T02:03:56.605Z,96156.44
2023-05-10T02:06:28.439Z,96159.38
2023-05-10T02:09:02.765Z,96162.59
2023-05-10T02:11:34.708Z,96150.97
2023-05-10T02:14:10.532Z,96157.50
2023-05-10T02:16:43.379Z,96151.03
2023-05-10T02:19:16.259Z,96160.78
2023-05-10T02:21:48.860Z,96160.31
2023-05-10T02:24:22.550Z,96154.59
2023-05-10T02:26:56.816Z,96166.78
2023-05-10T02:29:29.421Z,96171.94
2023-05-10T02:32:02.574Z,96178.06
2023-05-10T02:34:34.766Z,96175.84
2023-05-10T02:37:09.574Z,96172.72
2023-05-10T02:39:45.045Z,96171.47
2023-05-10T02:42:24.688Z,96181.97
2023-05-10T02:45:03.161Z,96180.16
2023-05-10T02:47:35.350Z,96172.28
2023-05-10T02:50:08.095Z,96176.28
2023-05-10T02:52:50.685Z,96172.06
2023-05-10T02:55:33.431Z,96177.50
2023-05-10T02:58:07.281Z,96175.47
2023-05-10T03:00:38.882Z,96169.25
2023-05-10T03:03:10.632Z,96173.88
2023-05-10T03:05:42.501Z,96171.72
2023-05-10T03:08:14.147Z,96181.91
2023-05-10T03:11:36.870Z,96178.00
2023-05-10T03:14:45.125Z,96170.97
2023-05-10T03:17:42.037Z,96177.84
2023-05-10T03:20:26.557Z,96174.00
2023-05-10T03:23:17.395Z,96186.88
2023-05-10T03:25:51.350Z,96177.47
2023-05-10T03:28:26.836Z,96182.34
2023-05-10T03:30:59.934Z,96181.41
2023-05-10T03:33:31.783Z,96183.44
2023-05-10T03:36:03.693Z,96178.00
2023-05-10T03:38:35.337Z,96179.53
2023-05-10T03:41:07.080Z,96189.00
2023-05-10T03:43:39.466Z,96186.09
2023-05-10T03:46:11.505Z,96185.25
2023-05-10T03:48:43.185Z,96185.66
2023-05-10T03:51:14.782Z,96192.91
2023-05-10T03:53:49.407Z,96195.44
2023-05-10T03:56:24.107Z,96195.44
2023-05-10T03:58:55.689Z,96193.63
2023-05-10T04:01:30.605Z,96190.47
2023-05-10T04:04:02.500Z,96196.19
2023-05-10T04:06:34.180Z,96199.56
2023-05-10T04:09:06.454Z,96190.00
2023-05-10T04:11:38.134Z,96196.69
2023-05-10T04:14:10.098Z,96201.59
2023-05-10T04:16:41.761Z,96204.69
2023-05-10T04:19:13.424Z,96202.59
2023-05-10T04:21:45.039Z,96211.53
2023-05-10T04:24:16.701Z,96207.44
2023-05-10T04:26:48.262Z,96210.88
2023-05-10T04:29:19.897Z,96206.72
2023-05-10T04:31:52.002Z,96208.41
2023-05-10T04:34:23.665Z,96215.06
2023-05-10T04:36:55.318Z,96214.81
2023-05-10T04:39:26.881Z,96211.06
2023-05-10T04:41:58.400Z,96207.44
2023-05-10T04:44:30.740Z,96215.91
2023-05-10T04:47:03.279Z,96210.31
2023-05-10T04:49:34.921Z,96211.22
2023-05-10T04:52:06.474Z,96211.63
2023-05-10T04:54:38.225Z,96218.41
2023-05-10T04:57:12.167Z,96220.28
2023-05-10T04:59:43.893Z,96205.53
2023-05-10T05:02:15.492Z,96217.59
2023-05-10T05:04:47.264Z,96224.88
2023-05-10T05:07:18.840Z,96215.63
2023-05-10T05:09:50.508Z,96225.13
2023-05-10T05:12:22.047Z,96224.25
2023-05-10T05:14:53.636Z,96225.19
2023-05-10T05:17:25.247Z,96224.97
2023-05-10T05:19:57.051Z,96232.75
2023-05-10T05:22:30.086Z,96229.91
2023-05-10T05:25:03.448Z,96234.13
2023-05-10T05:27:35.039Z,96240.34
2023-05-10T05:30:07.672Z,96243.50
2023-05-10T05:32:39.325Z,96248.19
2023-05-10T05:35:10.965Z,96249.41
2023-05-10T05:37:42.583Z,96249.03
2023-05-10T05:40:15.051Z,96252.19
2023-05-10T05:42:46.780Z,96253.50
2023-05-10T05:45:18.791Z,96249.56
2023-05-10T05:47:50.608Z,96251.38
2023-05-10T05:50:22.659Z,96264.13
2023-05-10T05:52:58.161Z,96268.06
2023-05-10T05:55:30.626Z,96271.38
2023-05-10T05:58:02.186Z,96272.91
2023-05-10T06:00:33.820Z,96275.97
2023-05-10T06:03:05.486Z,96274.22
2023-05-10T06:05:37.154Z,96269.31
2023-05-10T06:08:08.820Z,96274.56
2023-05-10T06:10:40.423Z,96273.19
2023-05-10T06:13:14.935Z,96277.72
2023-05-10T06:15:46.502Z,96282.94
2023-05-10T06:18:18.170Z,96290.28
2023-05-10T06:20:53.490Z,96289.72
2023-05-10T06:23:26.470Z,96290.56
2023-05-10T06:25:58.103Z,96290.13
2023-05-10T06:28:32.214Z,96295.44
2023-05-10T06:31:03.960Z,96298.97
2023-05-10T06:33:36.270Z,96298.94
2023-05-10T06:36:08.056Z,96299.63
2023-05-10T06:38:40.026Z,96298.31
2023-05-10T06:41:11.831Z,96299.00
2023-05-10T06:43:44.332Z,96303.63
2023-05-10T06:46:19.029Z,96310.69
2023-05-10T06:48:50.982Z,96311.56
2023-05-10T06:51:22.644Z,96304.09
2023-05-10T06:53:54.192Z,96316.34
2023-05-10T06:56:25.808Z,96311.88
2023-05-10T06:58:57.390Z,96315.50
2023-05-10T07:01:32.123Z,96323.22
2023-05-10T07:04:03.709Z,96315.44
2023-05-10T07:06:35.659Z,96314.88
2023-05-10T07:09:11.222Z,96319.72
2023-05-10T07:11:42.800Z,96312.34
2023-05-10T07:14:14.326Z,96319.13
2023-05-10T07:16:46.036Z,96321.78
2023-05-10T07:19:17.625Z,96323.50
2023-05-10T07:21:49.296Z,96321.69
2023-05-10T07:24:21.001Z,96323.03
2023-05-10T07:26:52.581Z,96326.72
2023-05-10T07:29:24.251Z,96324.44
2023-05-10T07:31:58.540Z,96326.72
2023-05-10T07:34:31.443Z,96322.03
2023-05-10T07:37:03.209Z,96333.28
2023-05-10T07:39:34.773Z,96328.56
2023-05-10T07:42:06.704Z,96339.16
2023-05-10T07:44:38.278Z,96337.69
2023-05-10T07:47:09.974Z,96333.50
2023-05-10T07:49:41.737Z,96329.66
2023-05-10T07:52:13.313Z,96327.03
2023-05-10T07:54:45.600Z,96338.91
2023-05-10T07:57:18.586Z,96335.84
2023-05-10T07:59:50.155Z,96342.31
2023-05-10T08:02:21.756Z,96345.59
2023-05-10T08:04:53.877Z,96344.16
2023-05-10T08:07:25.975Z,96340.41
2023-05-10T08:09:57.622Z,96332.88
2023-05-10T08:12:29.278Z,96331.72
2023-05-10T08:15:01.090Z,96344.94
2023-05-10T08:17:32.770Z,96336.63
2023-05-10T08:22:51.914Z,96346.47
2023-05-10T08:25:23.651Z,96338.53
2023-05-10T08:27:55.296Z,96346.16
2023-05-10T08:30:26.926Z,96344.41
2023-05-10T08:32:58.542Z,96345.34
2023-05-10T08:35:30.287Z,96343.47
2023-05-10T08:38:02.307Z,96346.66
2023-05-10T08:40:34.145Z,96354.06
2023-05-10T08:43:09.583Z,96349.25
2023-05-10T08:45:44.280Z,96343.25
2023-05-10T08:48:17.416Z,96341.75
2023-05-10T08:50:49.761Z,96349.78
2023-05-10T08:53:25.085Z,96338.91
2023-05-10T08:55:57.040Z,96349.28
2023-05-10T08:58:29.022Z,96354.97
2023-05-10T09:01:02.201Z,96342.88
2023-05-10T09:03:33.946Z,96348.69
2023-05-10T09:06:06.155Z,96356.06
2023-05-10T09:08:41.043Z,96362.91
2023-05-10T09:11:14.069Z,96358.91
2023-05-10T09:13:46.272Z,96357.88
2023-05-10T09:16:21.663Z,96355.69
2023-05-10T09:18:54.017Z,96348.59
2023-05-10T09:21:26.121Z,96349.81
2023-05-10T09:23:57.832Z,96358.94
2023-05-10T09:26:29.419Z,96359.91
2023-05-10T09:29:01.483Z,96366.13
2023-05-10T09:31:59.185Z,96356.16
2023-05-10T09:34:33.186Z,96363.00
2023-05-10T09:37:05.537Z,96355.97
2023-05-10T09:39:38.739Z,96353.16
2023-05-10T09:42:10.962Z,96362.00
2023-05-10T09:44:44.392Z,96353.66
2023-05-10T09:47:22.729Z,96358.16
2023-05-10T09:49:56.606Z,96359.44
2023-05-10T09:52:28.281Z,96364.56
2023-05-10T09:54:59.965Z,96365.78
2023-05-10T09:57:32.359Z,96363.09
2023-05-10T10:00:07.994Z,96366.84
2023-05-10T10:02:40.608Z,96363.81
2023-05-10T10:05:12.890Z,96355.41
2023-05-10T10:07:50.206Z,96368.44
2023-05-10T10:10:22.149Z,96364.25
2023-05-10T10:12:54.745Z,96367.41
2023-05-10T10:15:26.802Z,96361.25
2023-05-10T10:17:58.501Z,96368.81
2023-05-10T10:20:30.342Z,96362.16
2023-05-10T10:23:01.941Z,96369.91
2023-05-10T10:25:34.025Z,96380.59
2023-05-10T10:28:17.137Z,96369.22
2023-05-10T10:30:52.244Z,96366.31
2023-05-10T10:33:58.158Z,96362.31
2023-05-10T10:36:30.194Z,96362.47
2023-05-10T10:39:04.076Z,96362.75
2023-05-10T10:41:38.492Z,96366.53
2023-05-10T10:44:37.024Z,96363.34
2023-05-10T10:47:24.363Z,96354.25
2023-05-10T10:49:58.806Z,96361.66
2023-05-10T10:52:47.314Z,96360.69
2023-05-10T10:55:23.485Z,96361.47
2023-05-10T10:58:02.052Z,96368.75
2023-05-10T11:00:38.443Z,96359.06
2023-05-10T11:03:18.420Z,96362.72
2023-05-10T11:05:55.319Z,96358.59
2023-05-10T11:08:30.031Z,96361.97
2023-05-10T11:11:01.716Z,96357.81
2023-05-10T11:13:39.198Z,96371.84
2023-05-10T11:16:21.803Z,96372.16
2023-05-10T11:19:03.605Z,96374.38
2023-05-10T11:22:12.665Z,96366.81
2023-05-10T11:25:01.481Z,96360.47
2023-05-10T11:27:34.116Z,96357.28
2023-05-10T11:30:07.989Z,96368.03
2023-05-10T11:32:40.631Z,96361.22
2023-05-10T11:35:13.350Z,96364.06
2023-05-10T11:37:49.180Z,96362.69
2023-05-10T11:40:25.599Z,96370.88
2023-05-10T11:42:57.562Z,96371.84
2023-05-10T11:45:36.525Z,96361.94
2023-05-10T11:48:08.820Z,96371.00
2023-05-10T11:50:47.386Z,96370.88
2023-05-10T11:53:25.821Z,96366.81
2023-05-10T11:56:11.334Z,96374.78
2023-05-10T11:58:43.169Z,96377.50
2023-05-10T12:01:14.850Z,96374.69
2023-05-10T12:03:46.896Z,96377.31
2023-05-10T12:06:20.810Z,96378.91
2023-05-10T12:08:55.274Z,96380.13
2023-05-10T12:11:29.041Z,96374.25
2023-05-10T12:14:00.626Z,96377.50
2023-05-10T12:16:32.560Z,96378.28
2023-05-10T12:19:04.317Z,96369.97
2023-05-10T12:21:36.042Z,96376.78
2023-05-10T12:24:08.816Z,96384.31
2023-05-10T12:26:40.649Z,96382.44
2023-05-10T12:29:18.102Z,96378.66
2023-05-10T12:31:52.656Z,96376.97
2023-05-10T12:34:39.764Z,96383.88
2023-05-10T12:37:11.445Z,96383.91
2023-05-10T12:39:47.222Z,96371.63
2023-05-10T12:42:20.914Z,96384.91
2023-05-10T12:44:57.648Z,96384.34
2023-05-10T12:47:29.719Z,96371.03
2023-05-10T12:50:03.693Z,96376.81
2023-05-10T12:52:35.698Z,96381.84
2023-05-10T12:55:07.797Z,96380.16
2023-05-10T12:57:39.378Z,96382.97
2023-05-10T13:00:11.753Z,96382.03
2023-05-10T13:02:43.455Z,96379.38
2023-05-10T13:05:15.080Z,96371.38
2023-05-10T13:07:46.766Z,96383.38
2023-05-10T13:10:18.729Z,96381.16
2023-05-10T13:12:53.797Z,96368.63
2023-05-10T13:15:26.206Z,96376.19
2023-05-10T13:17:57.815Z,96379.31
2023-05-10T13:20:36.756Z,96375.75
2023-05-10T13:23:08.363Z,96375.19
2023-05-10T13:25:40.227Z,96375.88
2023-05-10T13:28:12.174Z,96377.56
2023-05-10T13:30:43.717Z,96374.84
2023-05-10T13:33:15.488Z,96370.97
2023-05-10T13:35:47.355Z,96373.72
2023-05-10T13:38:19.957Z,96372.97
2023-05-10T13:40:53.905Z,96373.31
2023-05-10T13:43:25.875Z,96373.72
2023-05-10T13:45:57.805Z,96377.44
2023-05-10T13:48:29.479Z,96377.81
2023-05-10T13:51:01.058Z,96368.59
2023-05-10T13:53:33.050Z,96368.47
2023-05-10T13:56:07.667Z,96360.41
2023-05-10T13:58:39.269Z,96363.06
2023-05-10T14:01:11.068Z,96361.19
2023-05-10T14:03:43.047Z,96361.63
2023-05-10T14:06:14.724Z,96349.88
2023-05-10T14:08:46.741Z,96349.31
2023-05-10T14:11:18.529Z,96354.09
2023-05-10T14:13:53.157Z,96352.16
2023-05-10T14:16:24.991Z,96356.31
2023-05-10T14:18:59.267Z,96350.25
2023-05-10T14:21:31.709Z,96353.03
2023-05-10T14:24:03.410Z,96352.91
2023-05-10T14:26:35.638Z,96353.88
2023-05-10T14:29:08.012Z,96355.53
2023-05-10T14:31:41.425Z,96354.59
2023-05-10T14:34:13.077Z,96345.47
2023-05-10T14:36:44.743Z,96344.16
2023-05-10T14:39:16.769Z,96340.28
2023-05-10T14:41:48.466Z,96345.94
2023-05-10T14:44:20.030Z,96343.81
2023-05-10T14:46:51.874Z,96334.78
2023-05-10T14:49:28.035Z,96343.66
2023-05-10T14:51:59.640Z,96341.19
2023-05-10T14:54:31.278Z,96341.78
2023-05-10T14:57:02.876Z,96347.09
2023-05-10T14:59:36.489Z,96342.28
2023-05-10T15:02:09.389Z,96343.47
2023-05-10T15:04:41.971Z,96343.44
2023-05-10T15:07:16.526Z,96347.59
2023-05-10T15:09:48.098Z,96346.09
2023-05-10T15:12:20.212Z,96337.78
2023-05-10T15:14:51.938Z,96348.00
2023-05-10T15:17:23.502Z,96347.63
2023-05-10T15:19:55.250Z,96344.19
2023-05-10T15:22:29.164Z,96351.78
2023-05-10T15:25:00.883Z,96344.75
2023-05-10T15:27:32.431Z,96353.09
2023-05-10T15:30:04.823Z,96348.88
2023-05-10T15:32:36.600Z,96353.09
2023-05-10T15:35:11.628Z,96354.59
2023-05-10T15:37:43.443Z,96356.00
2023-05-10T15:40:17.763Z,96359.63
2023-05-10T15:42:49.437Z,96354.63
2023-05-10T15:45:21.013Z,96352.59
2023-05-10T15:47:52.899Z,96352.69
2023-05-10T15:50:24.491Z,96355.16
2023-05-10T15:52:56.237Z,96362.69
2023-05-10T15:55:27.881Z,96366.69
2023-05-10T15:57:59.552Z,96365.63
2023-05-10T16:00:31.337Z,96363.75
2023-05-10T16:03:03.120Z,96369.69
2023-05-10T16:05:34.961Z,96363.94
2023-05-10T16:08:06.528Z,96369.41
2023-05-10T16:10:38.298Z,96376.75
2023-05-10T16:13:09.934Z,96369.34
2023-05-10T16:15:41.938Z,96375.59
2023-05-10T16:18:13.624Z,96366.41
2023-05-10T16:20:45.462Z,96376.97
2023-05-10T16:23:20.166Z,96376.00
2023-05-10T16:25:52.020Z,96366.03
2023-05-10T16:28:23.608Z,96378.25
2023-05-10T16:30:55.205Z,96376.78
2023-05-10T16:33:26.985Z,96372.59
2023-05-10T16:35:58.582Z,96383.75
2023-05-10T16:38:30.339Z,96382.25
2023-05-10T16:41:03.625Z,96378.94
2023-05-10T16:43:35.790Z,96381.72
2023-05-10T16:46:11.958Z,96382.19
2023-05-10T16:48:43.655Z,96388.69
2023-05-10T16:51:15.438Z,96385.50
2023-05-10T16:53:49.218Z,96387.47
2023-05-10T16:56:22.261Z,96392.81
2023-05-10T16:58:54.083Z,96392.75
2023-05-10T17:01:27.027Z,96398.44
2023-05-10T17:03:58.988Z,96397.13
2023-05-10T17:06:31.320Z,96392.94
2023-05-10T17:09:04.050Z,96391.44
2023-05-10T17:11:35.660Z,96387.91
2023-05-10T17:14:10.085Z,96395.91
2023-05-10T17:16:42.107Z,96393.31
2023-05-10T17:19:14.598Z,96395.53
2023-05-10T17:21:46.260Z,96394.41
2023-05-10T17:24:20.277Z,96400.69
2023-05-10T17:26:51.991Z,96398.00
2023-05-10T17:29:23.944Z,96406.84
2023-05-10T17:31:55.603Z,96400.03
2023-05-10T17:34:27.375Z,96401.56
2023-05-10T17:36:58.951Z,96396.69
2023-05-10T17:39:30.684Z,96399.88
2023-05-10T17:42:02.286Z,96397.22
2023-05-10T17:44:36.912Z,96387.84
2023-05-10T17:47:10.830Z,96394.03
2023-05-10T17:49:42.490Z,96387.09
2023-05-10T17:52:14.196Z,96399.38
2023-05-10T17:54:45.738Z,96391.38
2023-05-10T17:57:17.329Z,96392.41
2023-05-10T17:59:48.842Z,96395.97
2023-05-10T18:02:20.693Z,96400.63
2023-05-10T18:04:52.488Z,96400.75
2023-05-10T18:07:25.658Z,96398.16
2023-05-10T18:09:57.798Z,96397.56
2023-05-10T18:12:29.512Z,96409.66
2023-05-10T18:15:04.292Z,96402.91
2023-05-10T18:17:39.053Z,96413.69
2023-05-10T18:20:10.896Z,96413.91
2023-05-10T18:22:43.412Z,96408.94
2023-05-10T18:25:15.300Z,96415.84
2023-05-10T18:27:47.557Z,96408.00
2023-05-10T18:30:19.443Z,96412.00
2023-05-10T18:32:51.003Z,96412.94
2023-05-10T18:35:22.878Z,96403.06
2023-05-10T18:37:54.787Z,96411.34
2023-05-10T18:40:27.426Z,96405.91
2023-05-10T18:42:59.009Z,96420.41
2023-05-10T18:45:31.048Z,96420.28
2023-05-10T18:48:05.850Z,96418.44
2023-05-10T18:50:37.971Z,96418.31
2023-05-10T18:53:09.618Z,96431.91
2023-05-10T18:55:41.221Z,96427.88
2023-05-10T18:58:12.816Z,96425.94
2023-05-10T19:00:44.379Z,96431.28
2023-05-10T19:03:16.217Z,96429.09
2023-05-10T19:05:48.920Z,96438.19
2023-05-10T19:08:20.517Z,96437.25
2023-05-10T19:10:52.126Z,96439.78
2023-05-10T19:13:24.919Z,96446.16
2023-05-10T19:16:11.276Z,96443.31
2023-05-10T19:18:45.422Z,96445.50
2023-05-10T19:21:17.300Z,96439.72
2023-05-10T19:23:48.981Z,96443.13
2023-05-10T19:26:21.012Z,96452.00
2023-05-10T19:28:54.520Z,96449.16
2023-05-10T19:31:26.081Z,96454.06
2023-05-10T19:34:00.026Z,96462.50
2023-05-10T19:36:34.385Z,96458.63
2023-05-10T19:39:09.171Z,96462.56
2023-05-10T19:41:40.801Z,96454.63
2023-05-10T19:44:12.695Z,96466.03
2023-05-10T19:46:44.482Z,96465.03
2023-05-10T19:49:17.397Z,96458.63
2023-05-10T19:51:49.260Z,96464.84
2023-05-10T19:54:20.909Z,96459.03
2023-05-10T19:56:52.658Z,96453.38
2023-05-10T19:59:24.381Z,96461.13
2023-05-10T20:02:23.393Z,96453.28
2023-05-10T20:04:55.162Z,96455.88
2023-05-10T20:07:26.684Z,96469.78
2023-05-10T20:09:58.433Z,96460.63
2023-05-10T20:12:30.099Z,96474.19
2023-05-10T20:15:02.269Z,96466.47
2023-05-10T20:17:35.570Z,96469.28
2023-05-10T20:20:07.708Z,96470.34
2023-05-10T20:22:40.122Z,96467.81
2023-05-10T20:25:12.673Z,96471.31
2023-05-10T20:27:49.755Z,96474.84
2023-05-10T20:30:21.606Z,96471.88
2023-05-10T20:32:53.279Z,96482.13
2023-05-10T20:35:24.826Z,96481.25
2023-05-10T20:37:56.376Z,96483.09
2023-05-10T20:40:28.207Z,96475.16
2023-05-10T20:42:59.716Z,96476.25
2023-05-10T20:45:31.549Z,96476.34
2023-05-10T20:48:03.784Z,96477.94
2023-05-10T20:50:35.633Z,96480.75
2023-05-10T20:53:07.392Z,96477.09
2023-05-10T20:55:39.236Z,96482.16
2023-05-10T20:58:10.789Z,96471.19
2023-05-10T21:00:42.535Z,96476.75
2023-05-10T21:03:14.517Z,96476.09
2023-05-10T21:05:46.150Z,96474.78
2023-05-10T21:08:17.711Z,96470.44
2023-05-10T21:10:49.550Z,96470.56
2023-05-10T21:13:21.149Z,96464.22
2023-05-10T21:15:53.248Z,96463.25
2023-05-10T21:18:24.934Z,96466.47
2023-05-10T21:20:56.610Z,96465.13
2023-05-10T21:23:28.208Z,96466.00
2023-05-10T21:26:00.523Z,96468.50
2023-05-10T21:28:32.192Z,96457.78
2023-05-10T21:31:08.112Z,96457.50
2023-05-10T21:33:39.774Z,96456.19
2023-05-10T21:36:11.377Z,96457.50
2023-05-10T21:38:44.589Z,96453.47
2023-05-10T21:41:17.468Z,96445.75
2023-05-10T21:43:49.119Z,96452.41
2023-05-10T21:46:20.747Z,96449.44
2023-05-10T21:48:52.423Z,96448.06
2023-05-10T21:51:23.995Z,96450.09
2023-05-10T21:53:55.645Z,96452.78
2023-05-10T21:56:27.272Z,96452.69
2023-05-10T21:58:58.857Z,96451.63
2023-05-10T22:01:30.866Z,96454.34
2023-05-10T22:04:02.479Z,96457.63
2023-05-10T22:06:34.022Z,96449.94
2023-05-10T22:09:05.691Z,96454.63
2023-05-10T22:11:37.329Z,96447.63
2023-05-10T22:14:09.067Z,96451.53
2023-05-10T22:16:43.664Z,96454.41
2023-05-10T22:19:15.235Z,96451.16
2023-05-10T22:21:46.832Z,96446.06
2023-05-10T22:24:18.537Z,96455.66
2023-05-10T22:26:50.067Z,96449.88
2023-05-10T22:29:22.664Z,96454.09
2023-05-10T22:31:54.230Z,96455.31
2023-05-10T22:34:25.890Z,96456.34
2023-05-10T22:36:57.452Z,96464.44
2023-05-10T22:39:29.201Z,96451.97
2023-05-10T22:42:00.918Z,96450.50
2023-05-10T22:44:32.483Z,96453.53
2023-05-10T22:47:06.529Z,96449.09
2023-05-10T22:49:38.239Z,96449.75
2023-05-10T22:52:10.023Z,96458.72
2023-05-10T22:54:41.692Z,96459.59
2023-05-10T22:57:13.347Z,96458.50
2023-05-10T22:59:44.960Z,96455.81
2023-05-10T23:02:16.792Z,96460.78
2023-05-10T23:04:48.559Z,96455.75
2023-05-10T23:07:20.508Z,96458.16
2023-05-10T23:09:52.434Z,96459.72
2023-05-10T23:12:24.035Z,96462.94
2023-05-10T23:14:56.552Z,96462.06
2023-05-10T23:17:28.389Z,96463.34
2023-05-10T23:20:00.012Z,96462.81
2023-05-10T23:22:31.962Z,96453.38
2023-05-10T23:25:03.853Z,96464.41
2023-05-10T23:27:35.428Z,96457.47
2023-05-10T23:30:08.014Z,96467.47
2023-05-10T23:32:41.597Z,96467.06
2023-05-10T23:35:13.191Z,96465.00
2023-05-10T23:37:44.706Z,96461.69
2023-05-10T23:40:17.104Z,96456.19
2023-05-10T23:42:48.895Z,96459.00
2023-05-10T23:45:20.546Z,96454.44
2023-05-10T23:47:52.750Z,96451.78
2023-05-10T23:50:24.481Z,96452.78
2023-05-10T23:52:56.020Z,96451.16
2023-05-10T23:55:27.702Z,96447.06
2023-05-10T23:57:59.233Z,96443.59
